createdAt,value
2022-08-07T00:02:35.329Z,56.83
2022-08-07T00:04:17.756Z,56.83
2022-08-07T00:06:53.574Z,56.83
2022-08-07T00:09:29.193Z,56.95
2022-08-07T00:12:05.242Z,57.03
2022-08-07T00:14:34.308Z,57.16
2022-08-07T00:17:04.990Z,57.28
2022-08-07T00:20:01.348Z,57.30
2022-08-07T00:22:35.147Z,57.34
2022-08-07T00:25:11.035Z,57.36
2022-08-07T00:27:53.153Z,57.41
2022-08-07T00:30:28.199Z,57.40
2022-08-07T00:32:58.840Z,57.41
2022-08-07T00:35:29.672Z,57.33
2022-08-07T00:38:00.261Z,57.27
2022-08-07T00:40:39.320Z,57.38
2022-08-07T00:43:58.970Z,57.40
2022-08-07T00:46:02.255Z,57.40
2022-08-07T00:48:32.603Z,57.46
2022-08-07T00:51:02.940Z,57.51
2022-08-07T00:53:38.583Z,57.67
2022-08-07T00:56:19.073Z,57.74
2022-08-07T00:58:49.933Z,57.78
2022-08-07T01:01:20.714Z,57.84
2022-08-07T01:03:55.864Z,57.90
2022-08-07T01:06:29.520Z,58.07
2022-08-07T01:09:01.514Z,58.26
2022-08-07T01:12:23.740Z,58.47
2022-08-07T01:14:28.504Z,58.70
2022-08-07T01:17:00.286Z,58.76
2022-08-07T01:19:34.679Z,59.12
2022-08-07T01:22:09.040Z,59.27
2022-08-07T01:24:51.791Z,59.34
2022-08-07T01:27:21.064Z,59.41
2022-08-07T01:29:51.995Z,59.65
2022-08-07T01:32:23.014Z,59.67
2022-08-07T01:34:55.024Z,60.02
2022-08-07T01:37:24.980Z,60.41
2022-08-07T01:39:59.353Z,60.54
2022-08-07T01:42:40.292Z,60.60
2022-08-07T01:45:36.906Z,60.72
2022-08-07T01:48:29.920Z,60.83
2022-08-07T01:52:02.706Z,60.93
2022-08-07T01:54:09.493Z,60.89
2022-08-07T01:56:58.720Z,61.08
2022-08-07T01:59:52.492Z,61.25
2022-08-07T02:03:11.597Z,61.58
2022-08-07T02:05:47.751Z,61.79
2022-08-07T02:08:24.118Z,61.94
2022-08-07T02:10:57.982Z,62.22
2022-08-07T02:13:58.245Z,62.50
2022-08-07T02:16:33.129Z,62.85
2022-08-07T02:20:05.846Z,62.99
2022-08-07T02:21:59.768Z,63.14
2022-08-07T02:24:30.487Z,63.17
2022-08-07T02:27:02.791Z,63.41
2022-08-07T02:29:43.488Z,63.54
2022-08-07T02:32:23.238Z,63.75
2022-08-07T02:34:54.635Z,63.88
2022-08-07T02:37:34.066Z,63.97
2022-08-07T02:40:11.868Z,64.19
2022-08-07T02:42:59.395Z,64.44
2022-08-07T02:45:58.082Z,64.56
2022-08-07T02:48:21.073Z,64.63
2022-08-07T02:50:54.288Z,64.80
2022-08-07T02:53:38.833Z,64.88
2022-08-07T02:56:21.266Z,64.75
2022-08-07T02:58:55.336Z,64.92
2022-08-07T03:01:36.271Z,65.09
2022-08-07T03:04:14.641Z,65.24
2022-08-07T03:06:48.495Z,65.55
2022-08-07T03:09:43.420Z,65.73
2022-08-07T03:12:14.246Z,65.81
2022-08-07T03:14:56.494Z,65.93
2022-08-07T03:17:26.310Z,65.98
2022-08-07T03:19:57.331Z,65.81
2022-08-07T03:22:29.599Z,65.93
2022-08-07T03:25:01.506Z,65.90
2022-08-07T03:28:09.192Z,65.96
2022-08-07T03:30:26.585Z,65.94
2022-08-07T03:32:58.781Z,65.97
2022-08-07T03:35:43.502Z,65.96
2022-08-07T03:38:14.783Z,66.12
2022-08-07T03:40:45.635Z,66.23
2022-08-07T03:43:32.376Z,66.45
2022-08-07T03:46:10.571Z,66.60
2022-08-07T03:49:02.404Z,66.61
2022-08-07T03:51:47.163Z,66.58
2022-08-07T03:54:35.159Z,66.54
2022-08-07T03:57:09.897Z,66.64
2022-08-07T04:00:01.825Z,66.70
2022-08-07T04:02:34.558Z,66.67
2022-08-07T04:05:10.167Z,66.56
2022-08-07T04:07:47.710Z,66.44
2022-08-07T04:10:20.586Z,66.22
2022-08-07T04:12:54.233Z,66.15
2022-08-07T04:15:25.183Z,66.20
2022-08-07T04:18:58.618Z,66.19
2022-08-07T04:20:54.829Z,66.07
2022-08-07T04:23:43.843Z,65.98
2022-08-07T04:26:17.012Z,65.94
2022-08-07T04:28:51.685Z,65.92
2022-08-07T04:31:39.262Z,65.84
2022-08-07T04:34:16.734Z,65.64
2022-08-07T04:36:48.744Z,65.47
2022-08-07T04:39:25.481Z,65.25
2022-08-07T04:41:54.662Z,65.02
2022-08-07T04:44:24.415Z,64.75
2022-08-07T04:47:23.532Z,64.56
2022-08-07T04:50:25.212Z,64.26
2022-08-07T04:54:05.547Z,64.06
2022-08-07T04:58:16.495Z,63.87
2022-08-07T05:00:13.256Z,63.46
2022-08-07T05:04:00.570Z,63.28
2022-08-07T05:06:29.377Z,62.92
2022-08-07T05:09:45.692Z,62.66
2022-08-07T05:12:30.592Z,62.62
2022-08-07T05:15:23.358Z,62.29
2022-08-07T05:18:09.005Z,62.20
2022-08-07T05:20:54.210Z,62.02
2022-08-07T05:23:35.568Z,61.65
2022-08-07T05:26:13.822Z,61.27
2022-08-07T05:28:53.269Z,61.00
2022-08-07T05:31:34.993Z,60.65
2022-08-07T05:34:12.328Z,60.41
2022-08-07T05:36:53.254Z,60.15
2022-08-07T05:40:13.833Z,59.98
2022-08-07T05:42:33.693Z,59.50
2022-08-07T05:45:14.269Z,58.79
2022-08-07T05:48:01.937Z,58.05
2022-08-07T05:50:42.667Z,56.89
2022-08-07T05:54:13.827Z,56.09
2022-08-07T05:56:06.805Z,55.70
2022-08-07T05:58:41.908Z,55.57
2022-08-07T06:01:26.478Z,54.63
2022-08-07T06:04:05.348Z,52.97
2022-08-07T06:06:38.951Z,51.97
2022-08-07T06:09:17.927Z,51.38
2022-08-07T06:11:49.366Z,50.58
2022-08-07T06:14:30.322Z,49.81
2022-08-07T06:17:07.352Z,48.39
2022-08-07T06:19:58.378Z,47.46
2022-08-07T06:22:38.333Z,46.51
2022-08-07T06:25:54.440Z,45.18
2022-08-07T06:28:27.890Z,44.35
2022-08-07T06:30:58.244Z,43.35
2022-08-07T06:33:29.516Z,42.80
2022-08-07T06:36:11.862Z,42.07
2022-08-07T06:40:13.427Z,41.18
2022-08-07T06:42:35.110Z,40.12
2022-08-07T06:45:23.272Z,39.25
2022-08-07T06:48:01.415Z,38.78
2022-08-07T06:50:43.237Z,38.38
2022-08-07T06:54:11.499Z,38.35
2022-08-07T06:56:15.352Z,37.52
2022-08-07T07:00:14.716Z,37.01
2022-08-07T07:01:48.648Z,37.15
2022-08-07T07:04:28.221Z,36.00
2022-08-07T07:07:10.789Z,35.74
2022-08-07T07:09:51.814Z,35.14
2022-08-07T07:12:55.645Z,34.26
2022-08-07T07:15:37.754Z,34.06
2022-08-07T07:18:50.608Z,34.05
2022-08-07T07:21:27.308Z,33.81
2022-08-07T07:24:17.379Z,33.20
2022-08-07T07:26:52.353Z,32.86
2022-08-07T07:29:38.488Z,32.46
2022-08-07T07:32:18.885Z,32.70
2022-08-07T07:34:55.844Z,32.67
2022-08-07T07:37:49.501Z,32.35
2022-08-07T07:40:26.119Z,32.36
2022-08-07T07:42:57.684Z,31.80
2022-08-07T07:46:39.714Z,31.28
2022-08-07T07:48:35.985Z,31.09
2022-08-07T07:51:08.465Z,31.31
2022-08-07T07:53:51.858Z,31.13
2022-08-07T07:56:30.398Z,30.56
2022-08-07T07:59:10.614Z,30.16
2022-08-07T08:02:02.468Z,29.62
2022-08-07T08:04:37.198Z,29.44
2022-08-07T08:07:07.894Z,29.05
2022-08-07T08:09:52.114Z,28.29
2022-08-07T08:12:52.176Z,27.92
2022-08-07T08:15:23.197Z,27.29
2022-08-07T08:17:57.588Z,26.67
2022-08-07T08:20:48.051Z,26.61
2022-08-07T08:23:39.197Z,26.76
2022-08-07T08:26:27.993Z,26.82
2022-08-07T08:28:59.880Z,26.57
2022-08-07T08:32:04.777Z,26.74
2022-08-07T08:34:37.566Z,26.77
2022-08-07T08:37:55.527Z,26.73
2022-08-07T08:40:01.385Z,25.79
2022-08-07T08:42:53.009Z,25.91
2022-08-07T08:45:41.470Z,25.88
2022-08-07T08:48:51.724Z,26.02
2022-08-07T08:52:13.433Z,26.00
2022-08-07T08:54:55.169Z,25.77
2022-08-07T08:58:13.292Z,25.16
2022-08-07T09:01:05.113Z,25.71
2022-08-07T09:03:58.968Z,25.88
2022-08-07T09:06:40.203Z,26.04
2022-08-07T09:09:29.879Z,26.04
2022-08-07T09:12:31.566Z,25.98
2022-08-07T09:16:22.504Z,25.73
2022-08-07T09:18:22.826Z,26.00
2022-08-07T09:21:57.763Z,25.39
2022-08-07T09:24:58.904Z,25.38
2022-08-07T09:28:05.140Z,25.35
2022-08-07T09:30:55.047Z,25.19
2022-08-07T09:33:57.620Z,25.17
2022-08-07T09:36:46.901Z,25.17
2022-08-07T09:39:54.016Z,25.62
2022-08-07T09:43:12.019Z,25.22
2022-08-07T09:47:49.519Z,25.02
2022-08-07T09:50:01.713Z,25.38
2022-08-07T09:53:05.883Z,25.14
2022-08-07T09:56:19.876Z,25.06
2022-08-07T10:00:02.177Z,24.12
2022-08-07T10:02:56.879Z,24.89
2022-08-07T10:06:00.292Z,25.30
2022-08-07T10:09:01.604Z,25.56
2022-08-07T10:12:01.137Z,26.27
2022-08-07T10:15:44.893Z,25.86
2022-08-07T10:18:50.866Z,25.31
2022-08-07T10:22:12.261Z,25.75
2022-08-07T10:25:14.089Z,26.90
2022-08-07T10:28:41.458Z,27.46
2022-08-07T10:31:39.262Z,26.78
2022-08-07T10:34:58.150Z,26.34
2022-08-07T10:37:48.591Z,26.39
2022-08-07T10:40:39.045Z,25.66
2022-08-07T10:43:29.871Z,26.72
2022-08-07T10:46:19.627Z,26.46
2022-08-07T10:48:56.359Z,26.38
2022-08-07T10:52:01.519Z,26.88
2022-08-07T10:55:01.795Z,27.64
2022-08-07T10:58:02.071Z,28.47
2022-08-07T11:00:55.898Z,28.66
2022-08-07T11:03:52.671Z,28.32
2022-08-07T11:07:02.895Z,28.26
2022-08-07T11:10:07.606Z,28.47
2022-08-07T11:13:05.035Z,28.49
2022-08-07T11:15:42.633Z,28.60
2022-08-07T11:19:14.724Z,28.60
2022-08-07T11:22:32.514Z,28.57
2022-08-07T11:25:36.075Z,29.06
2022-08-07T11:28:53.374Z,29.18
2022-08-07T11:31:46.778Z,29.60
2022-08-07T11:34:54.121Z,29.59
2022-08-07T11:38:12.428Z,29.85
2022-08-07T11:41:18.269Z,29.67
2022-08-07T11:47:39.163Z,30.42
2022-08-07T11:57:14.305Z,30.63
2022-08-07T12:00:18.989Z,30.46
2022-08-07T12:03:57.422Z,30.56
2022-08-07T12:07:26.783Z,30.82
2022-08-07T12:10:05.808Z,30.95
2022-08-07T12:12:47.015Z,31.53
2022-08-07T12:16:05.185Z,32.35
2022-08-07T12:19:10.809Z,31.79
2022-08-07T12:22:39.161Z,31.45
2022-08-07T12:26:06.140Z,31.09
2022-08-07T12:29:20.507Z,30.96
2022-08-07T12:32:19.832Z,31.09
2022-08-07T12:34:56.595Z,31.32
2022-08-07T12:44:02.348Z,31.79
2022-08-07T12:47:10.200Z,32.12
2022-08-07T12:50:05.194Z,32.31
2022-08-07T12:53:18.434Z,32.36
2022-08-07T12:56:18.144Z,32.34
2022-08-07T12:58:56.914Z,32.51
2022-08-07T13:01:50.326Z,32.85
2022-08-07T13:05:10.341Z,32.83
2022-08-07T13:08:27.402Z,32.87
2022-08-07T13:12:01.796Z,32.38
2022-08-07T13:14:52.918Z,31.91
2022-08-07T13:17:42.838Z,31.92
2022-08-07T13:20:27.690Z,32.02
2022-08-07T13:24:01.410Z,32.05
2022-08-07T13:26:25.569Z,32.27
2022-08-07T13:29:13.004Z,32.35
2022-08-07T13:32:06.420Z,32.46
2022-08-07T13:36:00.985Z,32.84
2022-08-07T13:39:12.885Z,32.66
2022-08-07T13:41:54.725Z,32.67
2022-08-07T13:44:37.177Z,32.70
2022-08-07T13:47:15.039Z,32.83
2022-08-07T13:50:35.132Z,32.91
2022-08-07T13:52:41.510Z,33.28
2022-08-07T13:55:19.741Z,33.55
2022-08-07T13:58:31.442Z,33.17
2022-08-07T14:01:15.983Z,32.84
2022-08-07T14:04:07.005Z,33.16
2022-08-07T14:06:42.267Z,33.07
2022-08-07T14:10:02.166Z,33.04
2022-08-07T14:12:28.054Z,32.84
2022-08-07T14:15:09.796Z,32.65
2022-08-07T14:18:24.237Z,32.72
2022-08-07T14:20:49.254Z,32.74
2022-08-07T14:24:00.654Z,32.88
2022-08-07T14:26:29.981Z,32.81
2022-08-07T14:30:05.163Z,32.69
2022-08-07T14:31:59.354Z,32.86
2022-08-07T14:34:31.982Z,32.95
2022-08-07T14:37:07.941Z,32.71
2022-08-07T14:40:16.672Z,32.87
2022-08-07T14:43:55.447Z,33.04
2022-08-07T14:45:54.699Z,33.24
2022-08-07T14:48:34.698Z,33.35
2022-08-07T14:51:15.901Z,33.42
2022-08-07T14:53:49.987Z,33.82
2022-08-07T14:56:41.823Z,33.93
2022-08-07T15:00:03.550Z,33.73
2022-08-07T15:02:31.918Z,33.64
2022-08-07T15:07:59.522Z,33.51
2022-08-07T15:10:30.430Z,33.48
2022-08-07T15:13:11.711Z,33.30
2022-08-07T15:15:53.851Z,33.32
2022-08-07T15:18:41.754Z,33.42
2022-08-07T15:21:58.944Z,33.08
2022-08-07T15:25:12.710Z,33.20
2022-08-07T15:27:25.990Z,33.53
2022-08-07T15:30:16.491Z,33.54
2022-08-07T15:33:04.145Z,33.77
2022-08-07T15:36:01.672Z,34.02
2022-08-07T15:38:58.877Z,34.21
2022-08-07T15:47:16.798Z,34.31
2022-08-07T15:50:05.038Z,34.25
2022-08-07T15:52:45.861Z,34.17
2022-08-07T15:55:21.121Z,33.88
2022-08-07T15:58:00.208Z,33.91
2022-08-07T16:00:40.107Z,34.06
2022-08-07T16:03:46.449Z,33.95
2022-08-07T16:06:12.889Z,33.69
2022-08-07T16:08:49.660Z,33.88
2022-08-07T16:11:57.617Z,34.09
2022-08-07T16:15:55.483Z,34.09
2022-08-07T16:18:50.126Z,34.18
2022-08-07T16:22:14.890Z,34.30
2022-08-07T16:25:10.798Z,34.16
2022-08-07T16:29:18.640Z,34.13
2022-08-07T16:31:51.641Z,34.27
2022-08-07T16:34:55.311Z,34.36
2022-08-07T16:38:11.518Z,34.55
2022-08-07T16:41:48.651Z,34.59
2022-08-07T17:01:10.322Z,35.05
2022-08-07T17:04:29.528Z,34.85
2022-08-07T17:07:28.409Z,35.03
2022-08-07T17:10:32.702Z,34.90
2022-08-07T17:13:04.752Z,34.71
2022-08-07T17:15:57.180Z,34.66
2022-08-07T17:18:53.899Z,34.64
2022-08-07T17:22:10.602Z,34.63
2022-08-07T17:24:47.528Z,34.62
2022-08-07T17:27:50.842Z,34.74
2022-08-07T17:30:26.650Z,34.83
2022-08-07T17:34:09.249Z,34.86
2022-08-07T17:36:30.995Z,35.05
2022-08-07T17:39:58.746Z,35.35
2022-08-07T17:43:04.041Z,35.58
2022-08-07T17:49:23.173Z,36.11
2022-08-07T17:52:12.856Z,36.18
2022-08-07T17:54:53.576Z,36.40
2022-08-07T17:57:59.028Z,36.70
2022-08-07T18:00:49.006Z,36.91
2022-08-07T18:03:54.027Z,37.06
2022-08-07T18:07:20.536Z,37.18
2022-08-07T18:10:05.675Z,37.46
2022-08-07T18:12:52.708Z,37.40
2022-08-07T18:15:54.924Z,37.69
2022-08-07T18:18:46.459Z,37.85
2022-08-07T18:21:58.319Z,38.12
2022-08-07T18:25:19.290Z,38.52
2022-08-07T18:27:53.858Z,38.91
2022-08-07T18:30:43.283Z,39.03
2022-08-07T18:33:59.872Z,39.36
2022-08-07T18:38:56.383Z,39.67
2022-08-07T18:40:42.393Z,40.20
2022-08-07T18:43:57.257Z,40.38
2022-08-07T18:46:47.963Z,40.50
2022-08-07T18:50:32.023Z,40.65
2022-08-07T18:52:55.157Z,40.89
2022-08-07T18:56:08.085Z,41.05
2022-08-07T18:59:46.897Z,41.82
2022-08-07T19:02:51.207Z,42.87
2022-08-07T19:06:03.466Z,43.76
2022-08-07T19:08:58.661Z,44.56
2022-08-07T19:12:04.272Z,44.86
2022-08-07T19:16:04.665Z,45.36
2022-08-07T19:18:36.687Z,46.00
2022-08-07T19:21:46.584Z,46.47
2022-08-07T19:24:44.591Z,46.91
2022-08-07T19:28:57.148Z,47.42
2022-08-07T19:31:00.402Z,48.13
2022-08-07T19:33:12.947Z,48.42
2022-08-07T19:35:58.124Z,48.27
2022-08-07T19:38:33.934Z,48.24
2022-08-07T19:41:04.418Z,48.30
2022-08-07T19:43:43.724Z,48.55
2022-08-07T19:46:35.887Z,48.68
2022-08-07T19:49:08.422Z,48.86
2022-08-07T19:51:52.863Z,49.24
2022-08-07T19:54:55.537Z,49.71
2022-08-07T19:57:59.984Z,50.20
2022-08-07T20:00:28.110Z,50.88
2022-08-07T20:03:31.372Z,51.45
2022-08-07T20:06:02.115Z,51.89
2022-08-07T20:08:37.842Z,52.30
2022-08-07T20:11:15.098Z,52.76
2022-08-07T20:13:55.338Z,53.08
2022-08-07T20:16:35.692Z,53.29
2022-08-07T20:19:10.508Z,53.58
2022-08-07T20:21:47.181Z,53.65
2022-08-07T20:24:39.923Z,53.69
2022-08-07T20:27:45.789Z,54.20
2022-08-07T20:30:11.032Z,54.62
2022-08-07T20:32:46.550Z,54.87
2022-08-07T20:35:26.449Z,54.91
2022-08-07T20:37:58.689Z,55.18
2022-08-07T20:40:34.745Z,55.39
2022-08-07T20:43:09.684Z,55.42
2022-08-07T20:46:26.612Z,55.58
2022-08-07T20:48:42.228Z,55.92
2022-08-07T20:51:36.077Z,56.26
2022-08-07T20:54:12.076Z,56.48
2022-08-07T20:56:52.861Z,56.51
2022-08-07T21:00:06.500Z,56.87
2022-08-07T21:02:41.714Z,57.16
2022-08-07T21:05:50.510Z,57.65
2022-08-07T21:08:39.285Z,58.05
2022-08-07T21:11:22.162Z,58.22
2022-08-07T21:14:32.925Z,58.37
2022-08-07T21:18:02.670Z,58.42
2022-08-07T21:20:06.150Z,58.45
2022-08-07T21:22:51.251Z,58.48
2022-08-07T21:25:39.118Z,58.88
2022-08-07T21:28:49.035Z,59.10
2022-08-07T21:32:42.293Z,59.20
2022-08-07T21:35:11.222Z,59.20
2022-08-07T21:38:09.537Z,59.24
2022-08-07T21:40:57.514Z,59.43
2022-08-07T21:43:55.834Z,59.40
2022-08-07T21:46:58.580Z,59.66
2022-08-07T21:50:03.237Z,59.59
2022-08-07T21:53:07.830Z,59.78
2022-08-07T21:56:03.265Z,59.75
2022-08-07T21:58:45.849Z,59.85
2022-08-07T22:02:10.906Z,59.99
2022-08-07T22:04:53.877Z,60.18
2022-08-07T22:07:31.659Z,60.15
2022-08-07T22:10:24.633Z,60.30
2022-08-07T22:13:09.426Z,60.27
2022-08-07T22:16:43.043Z,60.40
2022-08-07T22:19:29.656Z,60.56
2022-08-07T22:22:18.087Z,60.69
2022-08-07T22:25:13.240Z,60.91
2022-08-07T22:28:31.073Z,61.02
2022-08-07T22:31:45.710Z,61.30
2022-08-07T22:34:19.998Z,61.45
2022-08-07T22:38:04.490Z,61.76
2022-08-07T22:41:03.517Z,61.56
2022-08-07T22:43:54.678Z,61.79
2022-08-07T22:47:26.936Z,61.93
2022-08-07T22:50:20.855Z,62.07
2022-08-07T22:54:06.313Z,62.13
2022-08-07T22:56:55.837Z,62.35
2022-08-07T23:00:06.457Z,62.34
2022-08-07T23:38:55.212Z,64.13
2022-08-07T23:42:10.053Z,64.30
2022-08-07T23:44:56.465Z,64.46
2022-08-07T23:47:46.500Z,64.51
2022-08-07T23:50:57.812Z,64.62
2022-08-07T23:53:54.342Z,64.73
2022-08-07T23:56:37.972Z,64.74
